sensor_id;sensor_type;location;lat;lon;timestamp;pressure;altitude;pressure_sealevel;temperature;humidity
72438;BME280;60444;43.534;-5.674;2024-02-16T00:00:07;101970.59;;;13.89;100.00
72438;BME280;60444;43.534;-5.674;2024-02-16T00:02:33;101988.28;;;13.99;100.00
72438;BME280;60444;43.534;-5.674;2024-02-16T00:04:58;101956.41;;;13.83;100.00
72438;BME280;60444;43.534;-5.674;2024-02-16T00:07:24;101970.75;;;13.86;100.00
72438;BME280;60444;43.534;-5.674;2024-02-16T00:09:50;101969.94;;;13.84;100.00
72438;BME280;60444;43.534;-5.674;2024-02-16T00:12:15;101985.03;;;13.91;100.00
72438;BME280;60444;43.534;-5.674;2024-02-16T00:14:42;101997.56;;;13.95;100.00
72438;BME280;60444;43.534;-5.674;2024-02-16T00:17:07;101993.13;;;13.93;100.00
72438;BME280;60444;43.534;-5.674;2024-02-16T00:19:35;102015.47;;;13.99;100.00
72438;BME280;60444;43.534;-5.674;2024-02-16T00:22:01;102003.25;;;13.89;100.00
72438;BME280;60444;43.534;-5.674;2024-02-16T00:24:27;102011.41;;;13.89;100.00
72438;BME280;60444;43.534;-5.674;2024-02-16T00:26:52;102021.22;;;13.93;100.00
72438;BME280;60444;43.534;-5.674;2024-02-16T00:29:18;102020.31;;;13.93;100.00
72438;BME280;60444;43.534;-5.674;2024-02-16T00:31:44;102020.19;;;13.96;100.00
72438;BME280;60444;43.534;-5.674;2024-02-16T00:34:10;102029.09;;;13.99;100.00
72438;BME280;60444;43.534;-5.674;2024-02-16T00:36:36;102018.56;;;13.92;100.00
72438;BME280;60444;43.534;-5.674;2024-02-16T00:39:01;102033.59;;;14.00;100.00
72438;BME280;60444;43.534;-5.674;2024-02-16T00:41:29;102032.09;;;13.93;100.00
72438;BME280;60444;43.534;-5.674;2024-02-16T00:43:55;102043.44;;;14.03;100.00
72438;BME280;60444;43.534;-5.674;2024-02-16T00:46:21;102037.25;;;13.99;100.00
72438;BME280;60444;43.534;-5.674;2024-02-16T00:48:49;102043.66;;;13.98;100.00
72438;BME280;60444;43.534;-5.674;2024-02-16T00:51:15;102027.72;;;13.89;100.00
72438;BME280;60444;43.534;-5.674;2024-02-16T00:53:40;102036.63;;;13.93;100.00
72438;BME280;60444;43.534;-5.674;2024-02-16T00:56:06;102040.50;;;13.87;100.00
72438;BME280;60444;43.534;-5.674;2024-02-16T00:58:32;102040.66;;;13.84;100.00
72438;BME280;60444;43.534;-5.674;2024-02-16T01:00:58;102049.28;;;13.94;100.00
72438;BME280;60444;43.534;-5.674;2024-02-16T01:03:24;102025.25;;;13.83;100.00
72438;BME280;60444;43.534;-5.674;2024-02-16T01:05:52;102041.59;;;13.83;100.00
72438;BME280;60444;43.534;-5.674;2024-02-16T01:08:18;102042.34;;;13.87;100.00
72438;BME280;60444;43.534;-5.674;2024-02-16T01:10:43;102031.75;;;13.81;100.00
72438;BME280;60444;43.534;-5.674;2024-02-16T01:13:09;102030.91;;;13.79;100.00
72438;BME280;60444;43.534;-5.674;2024-02-16T01:15:35;102049.41;;;13.91;100.00
72438;BME280;60444;43.534;-5.674;2024-02-16T01:18:03;102049.63;;;13.86;100.00
72438;BME280;60444;43.534;-5.674;2024-02-16T01:20:29;102031.66;;;13.82;100.00
72438;BME280;60444;43.534;-5.674;2024-02-16T01:22:56;102060.88;;;13.99;100.00
72438;BME280;60444;43.534;-5.674;2024-02-16T01:25:22;102065.34;;;14.00;100.00
72438;BME280;60444;43.534;-5.674;2024-02-16T01:27:49;102062.84;;;13.95;100.00
72438;BME280;60444;43.534;-5.674;2024-02-16T01:30:14;102053.72;;;13.96;100.00
72438;BME280;60444;43.534;-5.674;2024-02-16T01:32:41;102064.41;;;14.01;100.00
72438;BME280;60444;43.534;-5.674;2024-02-16T01:35:06;102072.56;;;14.01;100.00
72438;BME280;60444;43.534;-5.674;2024-02-16T01:37:32;102063.69;;;13.96;100.00
72438;BME280;60444;43.534;-5.674;2024-02-16T01:39:58;102056.44;;;13.96;100.00
72438;BME280;60444;43.534;-5.674;2024-02-16T01:42:24;102057.50;;;13.92;100.00
72438;BME280;60444;43.534;-5.674;2024-02-16T01:44:49;102063.59;;;13.99;100.00
72438;BME280;60444;43.534;-5.674;2024-02-16T01:47:16;102073.50;;;14.00;100.00
72438;BME280;60444;43.534;-5.674;2024-02-16T01:49:44;102069.13;;;13.96;100.00
72438;BME280;60444;43.534;-5.674;2024-02-16T01:52:10;102078.06;;;13.99;100.00
72438;BME280;60444;43.534;-5.674;2024-02-16T01:54:36;102069.06;;;13.97;100.00
72438;BME280;60444;43.534;-5.674;2024-02-16T01:57:01;102068.06;;;14.00;100.00
72438;BME280;60444;43.534;-5.674;2024-02-16T01:59:27;102071.69;;;14.00;100.00
72438;BME280;60444;43.534;-5.674;2024-02-16T02:01:53;102065.41;;;13.98;100.00
72438;BME280;60444;43.534;-5.674;2024-02-16T02:04:18;102066.41;;;13.96;100.00
72438;BME280;60444;43.534;-5.674;2024-02-16T02:06:45;102075.34;;;13.99;100.00
72438;BME280;60444;43.534;-5.674;2024-02-16T02:09:10;102058.63;;;13.88;100.00
72438;BME280;60444;43.534;-5.674;2024-02-16T02:11:36;102088.75;;;14.04;100.00
72438;BME280;60444;43.534;-5.674;2024-02-16T02:14:03;102066.81;;;13.87;100.00
72438;BME280;60444;43.534;-5.674;2024-02-16T02:16:28;102090.03;;;13.95;100.00
72438;BME280;60444;43.534;-5.674;2024-02-16T02:18:54;102092.78;;;13.94;100.00
72438;BME280;60444;43.534;-5.674;2024-02-16T02:21:19;102098.25;;;13.94;100.00
72438;BME280;60444;43.534;-5.674;2024-02-16T02:23:45;102096.63;;;13.90;100.00
72438;BME280;60444;43.534;-5.674;2024-02-16T02:26:14;102102.00;;;13.91;100.00
72438;BME280;60444;43.534;-5.674;2024-02-16T02:28:39;102083.34;;;13.82;100.00
72438;BME280;60444;43.534;-5.674;2024-02-16T02:31:05;102095.88;;;13.86;100.00
72438;BME280;60444;43.534;-5.674;2024-02-16T02:33:30;102101.16;;;13.89;100.00
72438;BME280;60444;43.534;-5.674;2024-02-16T02:35:56;102125.41;;;13.95;100.00
72438;BME280;60444;43.534;-5.674;2024-02-16T02:38:22;102107.44;;;13.91;100.00
72438;BME280;60444;43.534;-5.674;2024-02-16T02:40:47;102122.69;;;13.95;100.00
72438;BME280;60444;43.534;-5.674;2024-02-16T02:43:13;102117.34;;;13.92;100.00
72438;BME280;60444;43.534;-5.674;2024-02-16T02:45:39;102067.78;;;13.64;100.00
72438;BME280;60444;43.534;-5.674;2024-02-16T02:48:05;102119.38;;;13.87;100.00
72438;BME280;60444;43.534;-5.674;2024-02-16T02:50:30;102107.88;;;13.81;100.00
72438;BME280;60444;43.534;-5.674;2024-02-16T02:52:57;102121.28;;;13.85;100.00
72438;BME280;60444;43.534;-5.674;2024-02-16T02:55:22;102132.00;;;13.90;100.00
72438;BME280;60444;43.534;-5.674;2024-02-16T02:57:48;102103.50;;;13.77;100.00
72438;BME280;60444;43.534;-5.674;2024-02-16T03:00:13;102109.84;;;13.77;100.00
72438;BME280;60444;43.534;-5.674;2024-02-16T03:02:40;102109.88;;;13.76;100.00
72438;BME280;60444;43.534;-5.674;2024-02-16T03:05:06;102117.03;;;13.78;100.00
72438;BME280;60444;43.534;-5.674;2024-02-16T03:07:33;102144.47;;;13.94;100.00
72438;BME280;60444;43.534;-5.674;2024-02-16T03:09:59;102127.00;;;13.79;100.00
72438;BME280;60444;43.534;-5.674;2024-02-16T03:12:24;102101.81;;;13.74;100.00
72438;BME280;60444;43.534;-5.674;2024-02-16T03:14:50;102138.28;;;13.90;100.00
72438;BME280;60444;43.534;-5.674;2024-02-16T03:17:15;102149.06;;;13.93;100.00
72438;BME280;60444;43.534;-5.674;2024-02-16T03:19:41;102132.22;;;13.84;100.00
72438;BME280;60444;43.534;-5.674;2024-02-16T03:22:06;102128.50;;;13.86;100.00
72438;BME280;60444;43.534;-5.674;2024-02-16T03:24:32;102156.19;;;13.96;100.00
72438;BME280;60444;43.534;-5.674;2024-02-16T03:26:58;102142.94;;;13.88;100.00
72438;BME280;60444;43.534;-5.674;2024-02-16T03:29:23;102134.88;;;13.85;100.00
72438;BME280;60444;43.534;-5.674;2024-02-16T03:31:50;102137.75;;;13.82;100.00
72438;BME280;60444;43.534;-5.674;2024-02-16T03:34:16;102154.44;;;13.95;100.00
72438;BME280;60444;43.534;-5.674;2024-02-16T03:36:42;102157.22;;;13.93;100.00
72438;BME280;60444;43.534;-5.674;2024-02-16T03:39:07;102146.59;;;13.87;100.00
72438;BME280;60444;43.534;-5.674;2024-02-16T03:41:34;102137.88;;;13.79;100.00
72438;BME280;60444;43.534;-5.674;2024-02-16T03:44:00;102173.66;;;13.90;100.00
72438;BME280;60444;43.534;-5.674;2024-02-16T03:46:26;102175.94;;;13.79;100.00
72438;BME280;60444;43.534;-5.674;2024-02-16T03:48:52;102172.56;;;13.73;100.00
72438;BME280;60444;43.534;-5.674;2024-02-16T03:51:18;102161.16;;;13.63;100.00
72438;BME280;60444;43.534;-5.674;2024-02-16T03:53:43;102176.94;;;13.77;100.00
72438;BME280;60444;43.534;-5.674;2024-02-16T03:56:11;102180.56;;;13.77;100.00
72438;BME280;60444;43.534;-5.674;2024-02-16T03:58:37;102182.38;;;13.77;100.00
72438;BME280;60444;43.534;-5.674;2024-02-16T04:01:04;102199.31;;;13.83;100.00
72438;BME280;60444;43.534;-5.674;2024-02-16T04:03:32;102180.66;;;13.74;100.00
72438;BME280;60444;43.534;-5.674;2024-02-16T04:05:57;102184.16;;;13.78;100.00
72438;BME280;60444;43.534;-5.674;2024-02-16T04:08:25;102179.91;;;13.71;100.00
72438;BME280;60444;43.534;-5.674;2024-02-16T04:10:50;102191.38;;;13.79;100.00
72438;BME280;60444;43.534;-5.674;2024-02-16T04:13:16;102193.13;;;13.80;100.00
72438;BME280;60444;43.534;-5.674;2024-02-16T04:15:41;102176.31;;;13.70;100.00
72438;BME280;60444;43.534;-5.674;2024-02-16T04:18:07;102192.25;;;13.79;100.00
72438;BME280;60444;43.534;-5.674;2024-02-16T04:20:32;102178.25;;;13.67;100.00
72438;BME280;60444;43.534;-5.674;2024-02-16T04:22:58;102172.81;;;13.67;100.00
72438;BME280;60444;43.534;-5.674;2024-02-16T04:25:23;102183.50;;;13.71;100.00
72438;BME280;60444;43.534;-5.674;2024-02-16T04:27:50;102201.50;;;13.75;100.00
72438;BME280;60444;43.534;-5.674;2024-02-16T04:30:16;102189.19;;;13.65;100.00
72438;BME280;60444;43.534;-5.674;2024-02-16T04:32:41;102199.97;;;13.68;100.00
72438;BME280;60444;43.534;-5.674;2024-02-16T04:35:07;102174.19;;;13.55;100.00
72438;BME280;60444;43.534;-5.674;2024-02-16T04:37:37;102207.03;;;13.72;100.00
72438;BME280;60444;43.534;-5.674;2024-02-16T04:40:05;102185.91;;;13.57;100.00
72438;BME280;60444;43.534;-5.674;2024-02-16T04:42:31;102203.59;;;13.67;100.00
72438;BME280;60444;43.534;-5.674;2024-02-16T04:44:56;102203.88;;;13.61;100.00
72438;BME280;60444;43.534;-5.674;2024-02-16T04:47:22;102224.38;;;13.70;100.00
72438;BME280;60444;43.534;-5.674;2024-02-16T04:49:47;102227.25;;;13.65;100.00
72438;BME280;60444;43.534;-5.674;2024-02-16T04:52:13;102206.88;;;13.53;100.00
72438;BME280;60444;43.534;-5.674;2024-02-16T04:54:39;102227.31;;;13.64;100.00
72438;BME280;60444;43.534;-5.674;2024-02-16T04:57:06;102223.00;;;13.58;100.00
72438;BME280;60444;43.534;-5.674;2024-02-16T04:59:31;102221.19;;;13.59;100.00
72438;BME280;60444;43.534;-5.674;2024-02-16T05:01:57;102213.09;;;13.57;100.00
72438;BME280;60444;43.534;-5.674;2024-02-16T05:04:22;102227.44;;;13.61;100.00
72438;BME280;60444;43.534;-5.674;2024-02-16T05:06:48;102216.09;;;13.49;100.00
72438;BME280;60444;43.534;-5.674;2024-02-16T05:09:13;102259.81;;;13.67;100.00
72438;BME280;60444;43.534;-5.674;2024-02-16T05:11:42;102248.38;;;13.59;100.00
72438;BME280;60444;43.534;-5.674;2024-02-16T05:14:08;102236.94;;;13.49;100.00
72438;BME280;60444;43.534;-5.674;2024-02-16T05:16:33;102240.50;;;13.51;100.00
72438;BME280;60444;43.534;-5.674;2024-02-16T05:18:59;102243.16;;;13.52;100.00
72438;BME280;60444;43.534;-5.674;2024-02-16T05:21:24;102255.88;;;13.52;100.00
72438;BME280;60444;43.534;-5.674;2024-02-16T05:23:50;102253.19;;;13.50;100.00
72438;BME280;60444;43.534;-5.674;2024-02-16T05:26:15;102250.81;;;13.41;100.00
72438;BME280;60444;43.534;-5.674;2024-02-16T05:28:41;102281.97;;;13.56;100.00
72438;BME280;60444;43.534;-5.674;2024-02-16T05:31:15;102269.63;;;13.47;100.00
72438;BME280;60444;43.534;-5.674;2024-02-16T05:33:44;102261.88;;;13.37;100.00
72438;BME280;60444;43.534;-5.674;2024-02-16T05:36:10;102271.72;;;13.41;100.00
72438;BME280;60444;43.534;-5.674;2024-02-16T05:38:37;102287.81;;;13.45;100.00
72438;BME280;60444;43.534;-5.674;2024-02-16T05:41:09;102303.84;;;13.53;100.00
72438;BME280;60444;43.534;-5.674;2024-02-16T05:43:37;102291.50;;;13.44;100.00
72438;BME280;60444;43.534;-5.674;2024-02-16T05:46:04;102288.03;;;13.39;100.00
72438;BME280;60444;43.534;-5.674;2024-02-16T05:48:33;102303.22;;;13.46;100.00
72438;BME280;60444;43.534;-5.674;2024-02-16T05:51:03;102291.56;;;13.43;100.00
72438;BME280;60444;43.534;-5.674;2024-02-16T05:53:30;102288.03;;;13.39;100.00
72438;BME280;60444;43.534;-5.674;2024-02-16T05:55:56;102311.25;;;13.49;100.00
72438;BME280;60444;43.534;-5.674;2024-02-16T05:58:21;102304.97;;;13.47;100.00
72438;BME280;60444;43.534;-5.674;2024-02-16T06:00:48;102321.78;;;13.59;100.00
72438;BME280;60444;43.534;-5.674;2024-02-16T06:03:14;102323.53;;;13.60;100.00
72438;BME280;60444;43.534;-5.674;2024-02-16T06:05:40;102314.66;;;13.54;100.00
72438;BME280;60444;43.534;-5.674;2024-02-16T06:08:11;102321.84;;;13.57;100.00
72438;BME280;60444;43.534;-5.674;2024-02-16T06:10:37;102296.88;;;13.46;100.00
72438;BME280;60444;43.534;-5.674;2024-02-16T06:13:03;102312.06;;;13.51;100.00
72438;BME280;60444;43.534;-5.674;2024-02-16T06:15:28;102336.84;;;13.67;100.00
72438;BME280;60444;43.534;-5.674;2024-02-16T06:17:55;102348.69;;;13.66;100.00
72438;BME280;60444;43.534;-5.674;2024-02-16T06:20:21;102328.13;;;13.57;100.00
72438;BME280;60444;43.534;-5.674;2024-02-16T06:22:47;102336.09;;;13.64;100.00
72438;BME280;60444;43.534;-5.674;2024-02-16T06:25:14;102343.06;;;13.71;100.00
72438;BME280;60444;43.534;-5.674;2024-02-16T06:27:40;102329.81;;;13.62;100.00
72438;BME280;60444;43.534;-5.674;2024-02-16T06:30:07;102346.69;;;13.71;100.00
72438;BME280;60444;43.534;-5.674;2024-02-16T06:32:33;102356.59;;;13.72;100.00
72438;BME280;60444;43.534;-5.674;2024-02-16T06:34:58;102347.72;;;13.67;100.00
72438;BME280;60444;43.534;-5.674;2024-02-16T06:37:24;102323.72;;;13.55;100.00
72438;BME280;60444;43.534;-5.674;2024-02-16T06:39:50;102333.63;;;13.56;100.00
72438;BME280;60444;43.534;-5.674;2024-02-16T06:42:15;102347.16;;;13.59;100.00
72438;BME280;60444;43.534;-5.674;2024-02-16T06:44:41;102361.31;;;13.67;100.00
72438;BME280;60444;43.534;-5.674;2024-02-16T06:47:06;102347.16;;;13.59;100.00
72438;BME280;60444;43.534;-5.674;2024-02-16T06:49:32;102380.09;;;13.75;100.00
72438;BME280;60444;43.534;-5.674;2024-02-16T06:51:58;102370.44;;;13.66;100.00
72438;BME280;60444;43.534;-5.674;2024-02-16T06:54:23;102381.97;;;13.73;100.00
72438;BME280;60444;43.534;-5.674;2024-02-16T06:56:51;102378.25;;;13.75;100.00
72438;BME280;60444;43.534;-5.674;2024-02-16T06:59:17;102365.09;;;13.63;100.00
72438;BME280;60444;43.534;-5.674;2024-02-16T07:01:43;102388.50;;;13.67;100.00
72438;BME280;60444;43.534;-5.674;2024-02-16T07:04:08;102379.84;;;13.56;100.00
72438;BME280;60444;43.534;-5.674;2024-02-16T07:06:35;102408.50;;;13.66;100.00
72438;BME280;60444;43.534;-5.674;2024-02-16T07:09:00;102391.50;;;13.60;100.00
72438;BME280;60444;43.534;-5.674;2024-02-16T07:11:26;102398.13;;;13.52;100.00
72438;BME280;60444;43.534;-5.674;2024-02-16T07:13:51;102402.56;;;13.55;100.00
72438;BME280;60444;43.534;-5.674;2024-02-16T07:16:17;102426.59;;;13.67;100.00
72438;BME280;60444;43.534;-5.674;2024-02-16T07:18:43;102419.47;;;13.63;100.00
72438;BME280;60444;43.534;-5.674;2024-02-16T07:21:09;102424.03;;;13.63;100.00
72438;BME280;60444;43.534;-5.674;2024-02-16T07:23:34;102415.94;;;13.61;100.00
72438;BME280;60444;43.534;-5.674;2024-02-16T07:26:00;102412.47;;;13.56;100.00
72438;BME280;60444;43.534;-5.674;2024-02-16T07:28:27;102418.59;;;13.63;100.00
72438;BME280;60444;43.534;-5.674;2024-02-16T07:30:53;102434.75;;;13.67;100.00
72438;BME280;60444;43.534;-5.674;2024-02-16T07:33:19;102444.47;;;13.74;100.00
72438;BME280;60444;43.534;-5.674;2024-02-16T07:35:44;102420.50;;;13.61;100.00
72438;BME280;60444;43.534;-5.674;2024-02-16T07:38:10;102429.63;;;13.58;100.00
72438;BME280;60444;43.534;-5.674;2024-02-16T07:40:36;102449.06;;;13.72;100.00
72438;BME280;60444;43.534;-5.674;2024-02-16T07:43:02;102450.97;;;13.70;100.00
72438;BME280;60444;43.534;-5.674;2024-02-16T07:45:28;102466.13;;;13.77;100.00
72438;BME280;60444;43.534;-5.674;2024-02-16T07:47:54;102453.78;;;13.67;100.00
72438;BME280;60444;43.534;-5.674;2024-02-16T07:50:21;102454.63;;;13.69;100.00
72438;BME280;60444;43.534;-5.674;2024-02-16T07:52:50;102468.94;;;13.74;100.00
72438;BME280;60444;43.534;-5.674;2024-02-16T07:55:16;102473.66;;;13.69;100.00
72438;BME280;60444;43.534;-5.674;2024-02-16T07:57:46;102489.81;;;13.74;100.00
72438;BME280;60444;43.534;-5.674;2024-02-16T08:00:12;102506.16;;;13.74;100.00
72438;BME280;60444;43.534;-5.674;2024-02-16T08:02:38;102471.13;;;13.63;100.00
72438;BME280;60444;43.534;-5.674;2024-02-16T08:05:05;102499.09;;;13.68;100.00
72438;BME280;60444;43.534;-5.674;2024-02-16T08:07:33;102503.44;;;13.72;100.00
72438;BME280;60444;43.534;-5.674;2024-02-16T08:09:58;102524.09;;;13.78;100.00
72438;BME280;60444;43.534;-5.674;2024-02-16T08:12:26;102503.69;;;13.66;100.00
72438;BME280;60444;43.534;-5.674;2024-02-16T08:14:53;102502.66;;;13.70;100.00
72438;BME280;60444;43.534;-5.674;2024-02-16T08:17:19;102482.25;;;13.57;100.00
72438;BME280;60444;43.534;-5.674;2024-02-16T08:19:51;102524.16;;;13.76;100.00
72438;BME280;60444;43.534;-5.674;2024-02-16T08:22:18;102509.97;;;13.68;100.00
72438;BME280;60444;43.534;-5.674;2024-02-16T08:24:43;102516.25;;;13.69;100.00
72438;BME280;60444;43.534;-5.674;2024-02-16T08:27:12;102542.28;;;13.77;100.00
72438;BME280;60444;43.534;-5.674;2024-02-16T08:29:42;102529.00;;;13.68;100.00
72438;BME280;60444;43.534;-5.674;2024-02-16T08:32:08;102547.66;;;13.79;100.00
72438;BME280;60444;43.534;-5.674;2024-02-16T08:34:34;102551.28;;;13.79;100.00
72438;BME280;60444;43.534;-5.674;2024-02-16T08:37:02;102541.44;;;13.75;100.00
72438;BME280;60444;43.534;-5.674;2024-02-16T08:39:29;102532.56;;;13.70;100.00
72438;BME280;60444;43.534;-5.674;2024-02-16T08:41:58;102534.31;;;13.71;100.00
72438;BME280;60444;43.534;-5.674;2024-02-16T08:44:26;102553.03;;;13.80;100.00
72438;BME280;60444;43.534;-5.674;2024-02-16T08:46:53;102545.78;;;13.81;100.00
72438;BME280;60444;43.534;-5.674;2024-02-16T08:49:19;102532.56;;;13.70;100.00
72438;BME280;60444;43.534;-5.674;2024-02-16T08:51:45;102556.47;;;13.85;100.00
72438;BME280;60444;43.534;-5.674;2024-02-16T08:54:11;102552.00;;;13.84;100.00
72438;BME280;60444;43.534;-5.674;2024-02-16T08:56:36;102522.47;;;13.74;100.00
72438;BME280;60444;43.534;-5.674;2024-02-16T08:59:05;102545.47;;;13.90;100.00
72438;BME280;60444;43.534;-5.674;2024-02-16T09:01:34;102526.94;;;13.75;100.00
72438;BME280;60444;43.534;-5.674;2024-02-16T09:04:00;102526.88;;;13.76;100.00
72438;BME280;60444;43.534;-5.674;2024-02-16T09:06:27;102529.41;;;13.82;100.00
72438;BME280;60444;43.534;-5.674;2024-02-16T09:08:53;102542.81;;;13.88;100.00
72438;BME280;60444;43.534;-5.674;2024-02-16T09:11:18;102518.66;;;13.79;100.00
72438;BME280;60444;43.534;-5.674;2024-02-16T09:13:44;102552.19;;;14.04;100.00
72438;BME280;60444;43.534;-5.674;2024-02-16T09:16:09;102544.97;;;14.03;100.00
72438;BME280;60444;43.534;-5.674;2024-02-16T09:18:35;102562.78;;;14.12;100.00
72438;BME280;60444;43.534;-5.674;2024-02-16T09:21:03;102555.72;;;14.06;100.00
72438;BME280;60444;43.534;-5.674;2024-02-16T09:23:29;102538.69;;;14.01;100.00
72438;BME280;60444;43.534;-5.674;2024-02-16T09:25:54;102557.56;;;14.06;100.00
72438;BME280;60444;43.534;-5.674;2024-02-16T09:28:20;102552.91;;;14.09;100.00
72438;BME280;60444;43.534;-5.674;2024-02-16T09:30:46;102580.53;;;14.23;100.00
72438;BME280;60444;43.534;-5.674;2024-02-16T09:33:12;102566.06;;;14.21;100.00
72438;BME280;60444;43.534;-5.674;2024-02-16T09:35:39;102581.22;;;14.30;100.00
72438;BME280;60444;43.534;-5.674;2024-02-16T09:38:05;102572.25;;;14.26;100.00
72438;BME280;60444;43.534;-5.674;2024-02-16T09:40:31;102564.13;;;14.25;100.00
72438;BME280;60444;43.534;-5.674;2024-02-16T09:42:56;102549.56;;;14.27;100.00
72438;BME280;60444;43.534;-5.674;2024-02-16T09:45:22;102582.34;;;14.49;100.00
72438;BME280;60444;43.534;-5.674;2024-02-16T09:47:50;102579.47;;;14.52;100.00
72438;BME280;60444;43.534;-5.674;2024-02-16T09:50:17;102552.66;;;14.41;100.00
72438;BME280;60444;43.534;-5.674;2024-02-16T09:52:47;102574.75;;;14.57;100.00
72438;BME280;60444;43.534;-5.674;2024-02-16T09:55:14;102560.31;;;14.55;100.00
72438;BME280;60444;43.534;-5.674;2024-02-16T09:57:40;102576.19;;;14.67;100.00
72438;BME280;60444;43.534;-5.674;2024-02-16T10:00:06;102585.91;;;14.74;100.00
72438;BME280;60444;43.534;-5.674;2024-02-16T10:02:47;102579.56;;;14.74;100.00
72438;BME280;60444;43.534;-5.674;2024-02-16T10:05:15;102583.13;;;14.76;100.00
72438;BME280;60444;43.534;-5.674;2024-02-16T10:07:42;102591.09;;;14.82;100.00
72438;BME280;60444;43.534;-5.674;2024-02-16T10:10:27;102583.97;;;14.78;100.00
72438;BME280;60444;43.534;-5.674;2024-02-16T10:13:02;102597.28;;;14.85;100.00
72438;BME280;60444;43.534;-5.674;2024-02-16T10:15:29;102568.97;;;14.66;100.00
72438;BME280;60444;43.534;-5.674;2024-02-16T10:18:02;102599.06;;;14.86;100.00
72438;BME280;60444;43.534;-5.674;2024-02-16T10:20:28;102591.09;;;14.82;100.00
72438;BME280;60444;43.534;-5.674;2024-02-16T10:23:10;102594.84;;;14.78;100.00
72438;BME280;60444;43.534;-5.674;2024-02-16T10:25:38;102591.31;;;14.76;100.00
72438;BME280;60444;43.534;-5.674;2024-02-16T10:28:09;102593.09;;;14.77;100.00
72438;BME280;60444;43.534;-5.674;2024-02-16T10:30:39;102590.47;;;14.74;100.00
72438;BME280;60444;43.534;-5.674;2024-02-16T10:33:08;102612.88;;;14.82;100.00
72438;BME280;60444;43.534;-5.674;2024-02-16T10:35:35;102616.44;;;14.84;100.00
72438;BME280;60444;43.534;-5.674;2024-02-16T10:38:05;102602.81;;;14.84;100.00
72438;BME280;60444;43.534;-5.674;2024-02-16T10:40:37;102607.78;;;14.96;100.00
72438;BME280;60444;43.534;-5.674;2024-02-16T10:43:04;102589.97;;;14.87;100.00
72438;BME280;60444;43.534;-5.674;2024-02-16T10:45:37;102597.53;;;15.02;100.00
72438;BME280;60444;43.534;-5.674;2024-02-16T10:48:05;102614.25;;;15.16;100.00
72438;BME280;60444;43.534;-5.674;2024-02-16T10:50:37;102598.06;;;15.12;100.00
72438;BME280;60444;43.534;-5.674;2024-02-16T10:53:29;102585.97;;;15.19;100.00
72438;BME280;60444;43.534;-5.674;2024-02-16T10:56:00;102602.56;;;15.36;100.00
72438;BME280;60444;43.534;-5.674;2024-02-16T10:58:27;102607.41;;;15.51;100.00
72438;BME280;60444;43.534;-5.674;2024-02-16T11:00:55;102613.38;;;15.61;100.00
72438;BME280;60444;43.534;-5.674;2024-02-16T11:03:25;102605.81;;;15.67;100.00
72438;BME280;60444;43.534;-5.674;2024-02-16T11:05:51;102602.91;;;15.72;100.00
72438;BME280;60444;43.534;-5.674;2024-02-16T11:08:19;102623.22;;;15.86;100.00
72438;BME280;60444;43.534;-5.674;2024-02-16T11:11:00;102619.41;;;15.90;100.00
72438;BME280;60444;43.534;-5.674;2024-02-16T11:13:31;102601.44;;;15.85;100.00
72438;BME280;60444;43.534;-5.674;2024-02-16T11:16:07;102604.66;;;15.94;100.00
72438;BME280;60444;43.534;-5.674;2024-02-16T11:18:37;102626.00;;;16.06;100.00
72438;BME280;60444;43.534;-5.674;2024-02-16T11:21:05;102576.25;;;15.78;100.00
72438;BME280;60444;43.534;-5.674;2024-02-16T11:23:34;102634.09;;;16.08;100.00
72438;BME280;60444;43.534;-5.674;2024-02-16T11:26:04;102617.22;;;15.98;100.00
72438;BME280;60444;43.534;-5.674;2024-02-16T11:28:33;102630.56;;;16.06;100.00
72438;BME280;60444;43.534;-5.674;2024-02-16T11:30:59;102607.66;;;15.88;100.00
72438;BME280;60444;43.534;-5.674;2024-02-16T11:33:25;102623.81;;;15.93;100.00
72438;BME280;60444;43.534;-5.674;2024-02-16T11:35:54;102609.88;;;15.79;100.00
72438;BME280;60444;43.534;-5.674;2024-02-16T11:38:20;102615.28;;;15.80;100.00
72438;BME280;60444;43.534;-5.674;2024-02-16T11:41:01;102624.59;;;15.75;100.00
72438;BME280;60444;43.534;-5.674;2024-02-16T11:43:27;102623.84;;;15.71;100.00
72438;BME280;60444;43.534;-5.674;2024-02-16T11:45:53;102620.41;;;15.66;100.00
72438;BME280;60444;43.534;-5.674;2024-02-16T11:48:23;102621.19;;;15.70;100.00
72438;BME280;60444;43.534;-5.674;2024-02-16T11:50:55;102617.00;;;15.61;100.00
72438;BME280;60444;43.534;-5.674;2024-02-16T11:53:23;102628.47;;;15.69;100.00
72438;BME280;60444;43.534;-5.674;2024-02-16T11:55:49;102612.41;;;15.62;100.00
72438;BME280;60444;43.534;-5.674;2024-02-16T11:58:19;102619.53;;;15.66;100.00
72438;BME280;60444;43.534;-5.674;2024-02-16T12:00:47;102596.19;;;15.58;100.00
72438;BME280;60444;43.534;-5.674;2024-02-16T12:03:19;102619.28;;;15.72;100.00
72438;BME280;60444;43.534;-5.674;2024-02-16T12:05:57;102591.47;;;15.62;100.00
72438;BME280;60444;43.534;-5.674;2024-02-16T12:08:33;102617.31;;;15.75;100.00
72438;BME280;60444;43.534;-5.674;2024-02-16T12:10:59;102594.22;;;15.62;100.00
72438;BME280;60444;43.534;-5.674;2024-02-16T12:13:25;102619.22;;;15.73;100.00
72438;BME280;60444;43.534;-5.674;2024-02-16T12:15:51;102577.28;;;15.54;100.00
72438;BME280;60444;43.534;-5.674;2024-02-16T12:18:20;102617.31;;;15.75;100.00
72438;BME280;60444;43.534;-5.674;2024-02-16T12:21:02;102598.59;;;15.66;100.00
72438;BME280;60444;43.534;-5.674;2024-02-16T12:23:29;102601.84;;;15.76;100.00
72438;BME280;60444;43.534;-5.674;2024-02-16T12:25:58;102584.88;;;15.68;100.00
72438;BME280;60444;43.534;-5.674;2024-02-16T12:28:25;102571.56;;;15.60;100.00